Time;durP1;ratioP1;P1;durP2;ratioP2;P2;SDS_P1;SDS_P2;PMS_P1;PMS_P2;Temp;Humidity;BMP_temperature;BMP_pressure;BME280_temperature;BME280_humidity;BME280_pressure;Samples;Min_cycle;Max_cycle;Signal;HPM_P1;HPM_P2
2022/03/16 00:01:54;;;;;;;34.45;20.80;;;5.50;99.90;;;;;;6266858;22;20011;-61
2022/03/16 00:04:21;;;;;;;33.88;21.45;;;5.50;99.90;;;;;;6266595;22;20042;-61
2022/03/16 00:06:46;;;;;;;40.60;22.60;;;5.40;99.90;;;;;;6266073;22;20338;-66
2022/03/16 00:09:12;;;;;;;38.42;21.23;;;5.40;99.90;;;;;;6265189;22;20082;-68
2022/03/16 00:11:38;;;;;;;36.13;21.67;;;5.30;99.90;;;;;;6265909;22;20026;-62
2022/03/16 00:14:03;;;;;;;39.35;21.15;;;5.30;99.90;;;;;;6266266;22;20042;-68
2022/03/16 00:16:29;;;;;;;42.50;20.92;;;5.30;99.90;;;;;;6266821;22;20391;-58
2022/03/16 00:18:55;;;;;;;36.78;22.70;;;5.20;99.90;;;;;;6266353;22;20055;-70
2022/03/16 00:21:20;;;;;;;41.63;21.67;;;5.20;99.90;;;;;;6266820;22;20476;-56
2022/03/16 00:23:47;;;;;;;35.28;20.80;;;5.10;99.90;;;;;;6239354;22;20333;-60
2022/03/16 00:26:13;;;;;;;34.20;20.23;;;5.10;99.90;;;;;;6237637;22;20027;-61
2022/03/16 00:28:38;;;;;;;37.65;20.75;;;5.10;99.90;;;;;;6266962;22;20015;-69
2022/03/16 00:31:04;;;;;;;32.55;18.77;;;5.00;99.90;;;;;;6265992;22;20326;-71
2022/03/16 00:33:30;;;;;;;35.60;20.85;;;5.00;99.90;;;;;;6266322;22;20020;-71
2022/03/16 00:35:56;;;;;;;30.50;19.23;;;5.10;99.90;;;;;;6266319;22;20051;-76
2022/03/16 00:38:21;;;;;;;37.45;20.27;;;4.90;99.90;;;;;;6265882;22;20198;-68
2022/03/16 00:40:47;;;;;;;33.72;19.30;;;4.80;99.90;;;;;;6239028;22;20027;-62
2022/03/16 00:43:14;;;;;;;33.38;20.92;;;4.80;99.90;;;;;;6266784;22;20026;-75
2022/03/16 00:45:39;;;;;;;38.20;19.77;;;4.80;99.90;;;;;;6267616;22;20030;-71
2022/03/16 00:48:05;;;;;;;36.58;19.95;;;5.50;99.90;;;;;;6267594;22;20012;-76
2022/03/16 00:50:32;;;;;;;39.65;21.48;;;4.80;99.90;;;;;;6268510;22;20055;-63
2022/03/16 00:52:57;;;;;;;34.45;20.63;;;4.70;99.90;;;;;;6267932;22;20513;-69
2022/03/16 00:55:23;;;;;;;43.10;20.65;;;4.70;99.90;;;;;;6268315;22;20023;-68
2022/03/16 00:57:49;;;;;;;35.63;20.20;;;4.70;99.90;;;;;;6267987;22;20026;-69
2022/03/16 01:00:14;;;;;;;33.83;19.50;;;4.70;99.90;;;;;;6267745;22;20023;-60
2022/03/16 01:02:40;;;;;;;44.05;21.17;;;4.60;99.90;;;;;;6267872;22;20023;-63
2022/03/16 01:05:06;;;;;;;38.15;21.80;;;4.60;99.90;;;;;;6268562;22;20019;-69
2022/03/16 01:07:32;;;;;;;35.50;19.17;;;4.60;99.90;;;;;;6267258;22;20032;-58
2022/03/16 01:09:57;;;;;;;32.15;19.55;;;4.60;99.90;;;;;;6240769;22;20029;-58
2022/03/16 01:12:23;;;;;;;37.63;21.30;;;4.60;99.90;;;;;;6240092;22;20016;-58
2022/03/16 01:14:49;;;;;;;38.30;22.05;;;4.60;99.90;;;;;;6268333;22;20465;-64
2022/03/16 01:17:14;;;;;;;35.25;20.50;;;4.60;99.90;;;;;;6267970;22;20019;-59
2022/03/16 01:19:40;;;;;;;32.17;19.73;;;4.50;99.90;;;;;;6267714;22;20203;-59
2022/03/16 01:22:06;;;;;;;40.72;21.95;;;4.50;99.90;;;;;;6267960;22;20346;-58
2022/03/16 01:24:32;;;;;;;39.33;19.73;;;4.50;99.90;;;;;;6268402;22;20011;-59
2022/03/16 01:26:58;;;;;;;36.15;20.38;;;4.50;99.90;;;;;;6263793;22;20022;-59
2022/03/16 01:29:24;;;;;;;33.88;18.85;;;4.50;99.90;;;;;;6267152;22;20541;-59
2022/03/16 01:31:54;;;;;;;34.95;19.10;;;4.50;99.90;;;;;;6266813;22;20453;-59
2022/03/16 01:34:21;;;;;;;35.53;19.13;;;4.50;99.90;;;;;;6267854;22;20124;-58
2022/03/16 01:36:48;;;;;;;42.10;20.73;;;4.40;99.90;;;;;;6267717;22;20035;-59
2022/03/16 01:39:14;;;;;;;39.20;19.73;;;4.40;99.90;;;;;;6267997;22;20031;-58
2022/03/16 01:41:42;;;;;;;32.35;18.75;;;4.40;99.90;;;;;;6268023;22;20016;-58
2022/03/16 01:44:08;;;;;;;35.65;18.52;;;4.40;99.90;;;;;;6267477;22;20030;-59
2022/03/16 01:46:34;;;;;;;33.65;19.42;;;4.40;99.90;;;;;;6267678;22;20012;-59
2022/03/16 01:48:59;;;;;;;33.78;18.45;;;4.40;99.90;;;;;;6267338;22;20788;-59
2022/03/16 01:51:25;;;;;;;35.55;19.70;;;4.40;99.90;;;;;;6240126;22;20026;-59
2022/03/16 01:53:51;;;;;;;31.67;17.85;;;4.30;99.90;;;;;;6240710;22;20393;-59
2022/03/16 01:56:17;;;;;;;34.25;20.13;;;4.30;99.90;;;;;;6267538;22;20020;-62
2022/03/16 01:58:44;;;;;;;35.10;19.02;;;4.30;99.90;;;;;;6266938;22;20383;-59
2022/03/16 02:01:10;;;;;;;29.52;17.08;;;4.30;99.90;;;;;;6266947;22;20069;-59
2022/03/16 02:03:35;;;;;;;35.55;18.92;;;4.30;99.90;;;;;;6268167;22;20015;-59
2022/03/16 02:06:02;;;;;;;40.00;21.30;;;4.20;99.90;;;;;;6267675;22;20024;-59
2022/03/16 02:08:29;;;;;;;36.20;19.60;;;4.10;99.90;;;;;;6267695;22;20364;-58
2022/03/16 02:10:55;;;;;;;29.90;17.42;;;4.10;99.90;;;;;;6267434;22;20019;-61
2022/03/16 02:13:21;;;;;;;36.72;19.38;;;4.10;99.90;;;;;;6267556;22;20043;-62
2022/03/16 02:15:46;;;;;;;35.45;19.02;;;4.10;99.90;;;;;;6267275;22;20023;-59
2022/03/16 02:18:13;;;;;;;34.85;19.17;;;4.00;99.90;;;;;;6267513;22;20016;-59
2022/03/16 02:20:39;;;;;;;31.42;18.35;;;4.00;99.90;;;;;;6267560;22;20059;-58
2022/03/16 02:23:07;;;;;;;41.00;18.98;;;4.00;99.90;;;;;;6267526;22;20035;-58
2022/03/16 02:25:46;;;;;;;34.10;19.23;;;3.90;99.90;;;;;;6267512;22;20019;-58
2022/03/16 02:28:12;;;;;;;31.92;16.95;;;3.90;99.90;;;;;;6266911;22;20035;-59
2022/03/16 02:30:37;;;;;;;35.53;17.67;;;3.80;99.90;;;;;;6267380;22;20047;-58
2022/03/16 02:33:03;;;;;;;37.38;18.13;;;3.80;99.90;;;;;;6266560;22;20500;-63
2022/03/16 02:35:31;;;;;;;35.58;19.60;;;3.80;99.90;;;;;;6267303;22;20114;-68
2022/03/16 02:38:01;;;;;;;31.77;17.48;;;3.70;99.90;;;;;;6266679;22;20024;-61
2022/03/16 02:40:26;;;;;;;31.30;17.33;;;3.70;99.90;;;;;;6266782;22;20026;-59
2022/03/16 02:42:52;;;;;;;32.10;18.00;;;3.70;99.90;;;;;;6266816;22;20016;-60
2022/03/16 02:45:18;;;;;;;32.97;16.90;;;3.60;99.90;;;;;;6267669;22;20031;-75
2022/03/16 02:47:44;;;;;;;29.75;16.42;;;3.60;99.90;;;;;;6267629;22;20016;-72
2022/03/16 02:50:12;;;;;;;33.92;18.13;;;3.60;99.90;;;;;;6239957;22;20023;-68
2022/03/16 02:52:38;;;;;;;28.92;16.35;;;3.50;99.90;;;;;;6266863;22;20016;-72
2022/03/16 02:55:06;;;;;;;28.92;15.52;;;3.50;99.90;;;;;;6239082;22;20051;-74
2022/03/16 02:57:31;;;;;;;28.10;16.45;;;3.50;99.90;;;;;;6266623;22;20015;-75
2022/03/16 02:59:57;;;;;;;27.75;15.32;;;3.50;99.90;;;;;;6267103;22;20090;-60
2022/03/16 03:02:23;;;;;;;31.42;17.33;;;3.50;99.90;;;;;;6266930;22;20326;-76
2022/03/16 03:04:48;;;;;;;31.27;18.35;;;3.50;99.90;;;;;;6266570;22;20021;-74
2022/03/16 03:07:14;;;;;;;31.33;17.48;;;3.40;99.90;;;;;;6266589;22;20016;-74
2022/03/16 03:09:40;;;;;;;29.23;17.63;;;3.50;99.90;;;;;;6239825;22;20028;-64
2022/03/16 03:12:06;;;;;;;28.27;15.80;;;3.50;99.90;;;;;;6267346;22;20047;-61
2022/03/16 03:14:32;;;;;;;32.00;17.50;;;3.50;99.90;;;;;;6267195;22;20015;-59
2022/03/16 03:16:58;;;;;;;33.60;18.55;;;3.50;99.90;;;;;;6266911;22;20477;-63
2022/03/16 03:19:24;;;;;;;30.38;17.05;;;3.50;99.90;;;;;;6266613;22;20030;-60
2022/03/16 03:21:50;;;;;;;32.58;16.13;;;3.50;99.90;;;;;;6266692;22;20375;-62
2022/03/16 03:24:16;;;;;;;32.25;18.17;;;3.50;99.90;;;;;;6267104;22;20381;-65
2022/03/16 03:26:42;;;;;;;29.23;17.40;;;3.50;99.90;;;;;;6266340;22;20087;-63
2022/03/16 03:29:08;;;;;;;30.75;18.65;;;3.80;99.90;;;;;;6267537;22;20058;-59
2022/03/16 03:31:34;;;;;;;31.70;18.60;;;3.60;99.90;;;;;;6238882;22;20354;-58
2022/03/16 03:34:01;;;;;;;32.03;17.10;;;3.60;99.90;;;;;;6267982;22;20342;-58
2022/03/16 03:36:26;;;;;;;32.30;17.83;;;3.50;99.90;;;;;;6266837;22;20028;-60
2022/03/16 03:38:52;;;;;;;32.72;18.17;;;3.50;99.90;;;;;;6266367;22;20039;-62
2022/03/16 03:41:18;;;;;;;33.33;18.50;;;3.50;99.90;;;;;;6266996;22;20031;-67
2022/03/16 03:43:44;;;;;;;31.73;17.38;;;3.40;99.90;;;;;;6266422;22;20039;-59
2022/03/16 03:46:10;;;;;;;34.38;17.85;;;3.40;99.90;;;;;;6267347;22;20503;-59
2022/03/16 03:48:36;;;;;;;35.90;19.90;;;3.40;99.90;;;;;;6266603;22;20016;-59
2022/03/16 03:51:02;;;;;;;38.58;18.38;;;3.40;99.90;;;;;;6266647;22;20458;-61
2022/03/16 03:53:28;;;;;;;27.67;17.15;;;3.40;99.90;;;;;;6267370;22;20038;-59
2022/03/16 03:55:54;;;;;;;34.60;19.92;;;3.30;99.90;;;;;;6265870;22;20509;-58
2022/03/16 03:58:19;;;;;;;33.25;17.40;;;3.30;99.90;;;;;;6266010;22;20123;-59
2022/03/16 04:00:45;;;;;;;31.35;17.20;;;3.20;99.90;;;;;;6265338;22;20023;-58
2022/03/16 04:03:10;;;;;;;33.45;18.45;;;3.20;99.90;;;;;;6266041;22;20031;-58
2022/03/16 04:05:36;;;;;;;33.30;17.98;;;3.20;99.90;;;;;;6266873;22;20069;-58
2022/03/16 04:08:02;;;;;;;38.08;17.70;;;3.10;99.90;;;;;;6266873;22;20379;-59
2022/03/16 04:10:29;;;;;;;32.95;16.60;;;3.10;99.90;;;;;;6266812;22;20019;-58
2022/03/16 04:12:55;;;;;;;34.72;17.60;;;3.50;99.90;;;;;;6238521;22;20019;-58
2022/03/16 04:15:20;;;;;;;31.75;17.63;;;3.10;99.90;;;;;;6267086;22;20526;-59
2022/03/16 04:17:47;;;;;;;31.25;17.27;;;3.00;99.90;;;;;;6266576;22;20012;-58
2022/03/16 04:20:13;;;;;;;29.50;17.60;;;3.10;99.90;;;;;;6240362;22;20118;-59
2022/03/16 04:22:39;;;;;;;28.13;15.52;;;3.00;99.90;;;;;;6268991;22;20039;-59
2022/03/16 04:25:05;;;;;;;26.77;16.60;;;3.00;99.90;;;;;;6241586;22;20031;-59
2022/03/16 04:27:31;;;;;;;35.15;18.25;;;3.00;99.90;;;;;;6241002;22;20024;-58
2022/03/16 04:29:57;;;;;;;31.10;16.65;;;2.90;99.90;;;;;;6268802;22;20181;-59
2022/03/16 04:32:23;;;;;;;36.35;18.83;;;2.90;99.90;;;;;;6241116;22;20016;-59
2022/03/16 04:34:48;;;;;;;31.25;17.88;;;2.90;99.90;;;;;;6268477;22;20024;-59
2022/03/16 04:37:14;;;;;;;30.50;17.08;;;2.80;99.90;;;;;;6269245;22;20062;-58
2022/03/16 04:39:40;;;;;;;34.03;18.13;;;2.90;99.90;;;;;;6269151;22;20448;-59
2022/03/16 04:42:06;;;;;;;29.63;17.02;;;2.80;99.90;;;;;;6241436;22;20051;-58
2022/03/16 04:44:32;;;;;;;31.48;15.63;;;2.80;99.90;;;;;;6268957;22;20028;-72
2022/03/16 04:46:57;;;;;;;29.92;16.35;;;2.80;99.90;;;;;;6269423;22;20077;-69
2022/03/16 04:49:23;;;;;;;33.50;17.23;;;2.80;99.90;;;;;;6269064;22;20019;-67
2022/03/16 04:51:49;;;;;;;30.67;15.77;;;2.70;99.90;;;;;;6269474;22;20016;-71
2022/03/16 04:54:16;;;;;;;27.80;16.13;;;2.70;99.90;;;;;;6269419;22;20513;-75
2022/03/16 04:56:42;;;;;;;30.42;16.52;;;2.70;99.90;;;;;;6268386;22;20023;-71
2022/03/16 04:59:08;;;;;;;27.55;15.52;;;2.60;99.90;;;;;;6268536;22;20402;-74
2022/03/16 05:01:34;;;;;;;28.55;16.10;;;2.60;99.90;;;;;;6269065;22;20022;-76
2022/03/16 05:04:00;;;;;;;28.42;16.77;;;2.60;99.90;;;;;;6268969;22;20019;-71
2022/03/16 05:06:25;;;;;;;36.47;16.88;;;2.60;99.90;;;;;;6268587;22;20016;-77
2022/03/16 05:08:51;;;;;;;30.92;16.73;;;2.60;99.90;;;;;;6264364;22;20019;-71
2022/03/16 05:11:21;;;;;;;27.80;15.98;;;2.60;99.90;;;;;;6267425;22;20023;-77
2022/03/16 05:13:47;;;;;;;28.83;16.13;;;2.70;99.90;;;;;;6267706;22;20016;-73
2022/03/16 05:16:12;;;;;;;31.42;16.67;;;2.60;99.90;;;;;;6267830;22;20024;-63
2022/03/16 05:18:40;;;;;;;31.75;17.25;;;2.60;99.90;;;;;;6268603;22;20012;-58
2022/03/16 05:21:08;;;;;;;30.58;17.92;;;2.60;99.90;;;;;;6267805;22;20446;-61
2022/03/16 05:23:34;;;;;;;30.45;18.15;;;2.60;99.90;;;;;;6267738;22;20454;-59
2022/03/16 05:26:00;;;;;;;32.50;16.88;;;2.70;99.90;;;;;;6267803;22;20023;-64
2022/03/16 05:28:26;;;;;;;33.47;19.00;;;2.70;99.90;;;;;;6267606;22;20034;-59
2022/03/16 05:30:51;;;;;;;28.13;16.90;;;2.70;99.90;;;;;;6266873;22;20062;-59
2022/03/16 05:33:17;;;;;;;33.28;17.92;;;2.80;99.90;;;;;;6240896;22;20035;-59
2022/03/16 05:35:43;;;;;;;26.52;15.70;;;2.80;99.90;;;;;;6240059;22;20095;-59
2022/03/16 05:38:12;;;;;;;28.83;17.05;;;2.80;99.90;;;;;;6267903;22;20415;-58
2022/03/16 05:40:39;;;;;;;33.72;17.42;;;2.80;99.90;;;;;;6267339;22;20468;-58
2022/03/16 05:43:05;;;;;;;30.88;17.17;;;2.90;99.90;;;;;;6267761;22;20334;-59
2022/03/16 05:45:31;;;;;;;31.95;18.00;;;2.90;99.90;;;;;;6267908;22;20020;-59
2022/03/16 05:47:57;;;;;;;29.45;17.63;;;2.90;99.90;;;;;;6267539;22;20027;-58
2022/03/16 05:50:24;;;;;;;34.08;17.42;;;2.90;99.90;;;;;;6240168;22;20193;-58
2022/03/16 05:52:50;;;;;;;30.02;17.80;;;3.00;99.90;;;;;;6266151;22;20020;-59
2022/03/16 05:55:16;;;;;;;35.15;19.40;;;3.00;99.90;;;;;;6267583;22;20031;-58
2022/03/16 05:57:44;;;;;;;35.83;17.52;;;3.10;99.90;;;;;;6267548;22;20016;-58
2022/03/16 06:00:14;;;;;;;28.17;16.33;;;3.10;99.90;;;;;;6266933;22;20530;-58
2022/03/16 06:02:42;;;;;;;29.27;16.92;;;3.10;99.90;;;;;;6267410;22;20019;-58
2022/03/16 06:05:08;;;;;;;43.33;19.83;;;3.20;99.90;;;;;;6267288;22;20473;-58
2022/03/16 06:07:34;;;;;;;33.05;18.85;;;3.30;99.90;;;;;;6267265;22;20016;-58
2022/03/16 06:10:00;;;;;;;36.03;20.40;;;3.80;99.90;;;;;;6267473;22;20283;-58
2022/03/16 06:12:26;;;;;;;35.53;19.25;;;3.40;99.90;;;;;;6267258;22;20054;-58
2022/03/16 06:14:52;;;;;;;34.00;19.20;;;4.20;99.90;;;;;;6266847;22;20023;-63
2022/03/16 06:17:17;;;;;;;38.85;20.40;;;3.50;99.90;;;;;;6267184;22;20069;-59
2022/03/16 06:19:43;;;;;;;42.67;21.52;;;3.60;99.90;;;;;;6267229;22;20099;-65
2022/03/16 06:22:09;;;;;;;34.53;19.10;;;3.60;99.90;;;;;;6239624;22;20027;-64
2022/03/16 06:24:34;;;;;;;40.13;21.33;;;3.70;99.90;;;;;;6267218;22;20061;-66
2022/03/16 06:27:00;;;;;;;33.55;19.20;;;3.80;99.90;;;;;;6239386;22;20059;-65
2022/03/16 06:29:26;;;;;;;35.72;20.08;;;3.90;99.90;;;;;;6267909;22;20027;-63
2022/03/16 06:31:51;;;;;;;32.92;19.85;;;3.90;99.90;;;;;;6267274;22;20354;-59
2022/03/16 06:34:17;;;;;;;42.20;19.75;;;4.00;99.90;;;;;;6267780;22;20019;-63
2022/03/16 06:36:43;;;;;;;34.55;19.00;;;4.00;99.90;;;;;;6266217;22;20347;-58
2022/03/16 06:39:08;;;;;;;40.90;20.50;;;4.10;99.90;;;;;;6239345;22;20346;-59
2022/03/16 06:41:34;;;;;;;33.35;19.92;;;4.20;99.90;;;;;;6266849;22;20023;-58
2022/03/16 06:44:00;;;;;;;36.25;19.55;;;4.20;99.90;;;;;;6266722;22;20015;-59
2022/03/16 06:46:27;;;;;;;34.08;20.25;;;4.30;99.90;;;;;;6239140;22;20334;-59
2022/03/16 06:48:53;;;;;;;38.63;21.15;;;4.40;99.90;;;;;;6239810;22;20028;-59
2022/03/16 06:51:19;;;;;;;36.55;20.40;;;4.50;99.90;;;;;;6266390;22;20507;-58
2022/03/16 06:53:44;;;;;;;35.17;20.02;;;4.60;99.90;;;;;;6266254;22;20020;-58
2022/03/16 06:56:10;;;;;;;41.55;21.85;;;4.70;99.90;;;;;;6263483;22;20019;-58
2022/03/16 06:58:36;;;;;;;36.53;21.77;;;4.80;99.90;;;;;;6263944;22;20016;-59
2022/03/16 07:01:02;;;;;;;39.47;22.60;;;4.90;99.90;;;;;;6265339;22;20070;-59
2022/03/16 07:03:28;;;;;;;34.83;19.52;;;5.00;99.90;;;;;;6266773;22;20023;-58
2022/03/16 07:05:53;;;;;;;36.80;19.92;;;5.10;99.90;;;;;;6267337;22;20019;-58
2022/03/16 07:08:19;;;;;;;39.40;22.38;;;5.20;99.90;;;;;;6266422;22;20015;-59
2022/03/16 07:10:45;;;;;;;36.00;20.85;;;5.40;99.90;;;;;;6238940;22;20019;-58
2022/03/16 07:13:12;;;;;;;33.53;18.83;;;5.50;99.90;;;;;;6240408;22;20024;-58
2022/03/16 07:15:39;;;;;;;38.08;21.23;;;5.70;99.90;;;;;;6266288;22;20019;-58
2022/03/16 07:18:05;;;;;;;32.65;19.40;;;5.80;99.90;;;;;;6259813;22;20255;-58
2022/03/16 07:20:32;;;;;;;35.05;20.98;;;6.00;99.90;;;;;;6263998;22;20059;-59
2022/03/16 07:23:02;;;;;;;30.20;18.38;;;6.00;99.90;;;;;;6232904;22;20455;-58
2022/03/16 07:25:28;;;;;;;30.50;18.00;;;6.10;99.90;;;;;;6265365;22;20015;-58
2022/03/16 07:27:54;;;;;;;32.50;18.98;;;6.30;99.90;;;;;;6236015;22;20019;-58
2022/03/16 07:30:20;;;;;;;36.28;20.58;;;6.40;99.90;;;;;;6265310;22;20552;-59
2022/03/16 07:32:46;;;;;;;32.17;19.52;;;6.50;99.90;;;;;;6236979;22;20012;-59
2022/03/16 07:35:12;;;;;;;31.00;19.55;;;6.70;99.90;;;;;;6264887;22;20465;-59
2022/03/16 07:37:39;;;;;;;32.70;17.77;;;6.80;99.90;;;;;;6266038;22;20020;-59
2022/03/16 07:40:05;;;;;;;33.47;18.77;;;7.00;99.90;;;;;;6266297;22;20489;-59
2022/03/16 07:42:31;;;;;;;31.23;18.48;;;7.00;99.90;;;;;;6239566;22;20476;-59
2022/03/16 07:44:57;;;;;;;31.92;18.27;;;7.20;99.90;;;;;;6236529;22;20051;-59
2022/03/16 07:47:25;;;;;;;36.05;19.85;;;7.70;99.90;;;;;;6264559;22;20020;-58
2022/03/16 07:49:52;;;;;;;30.67;18.92;;;7.50;99.90;;;;;;6264714;22;20480;-58
2022/03/16 07:52:17;;;;;;;36.92;21.85;;;7.70;99.90;;;;;;6264130;22;20529;-59
2022/03/16 07:54:43;;;;;;;34.13;19.45;;;8.10;99.90;;;;;;6213402;22;20027;-58
2022/03/16 07:57:10;;;;;;;35.05;20.13;;;7.90;99.90;;;;;;6266839;22;20020;-58
2022/03/16 07:59:35;;;;;;;30.05;18.90;;;8.00;99.90;;;;;;6263142;22;20019;-64
2022/03/16 08:02:01;;;;;;;30.00;18.10;;;8.10;99.90;;;;;;6261624;22;20027;-59
2022/03/16 08:04:27;;;;;;;37.13;20.58;;;8.80;99.90;;;;;;6264728;22;20016;-58
2022/03/16 08:06:52;;;;;;;32.75;18.65;;;8.60;99.90;;;;;;6239023;22;20019;-59
2022/03/16 08:09:18;;;;;;;31.85;20.27;;;8.50;99.90;;;;;;6264943;22;20085;-59
2022/03/16 08:11:43;;;;;;;34.17;19.30;;;8.60;99.90;;;;;;6238511;22;20015;-59
2022/03/16 08:14:09;;;;;;;29.58;18.00;;;8.80;99.90;;;;;;6268071;22;20026;-60
2022/03/16 08:16:35;;;;;;;35.40;18.63;;;8.90;99.90;;;;;;6238311;22;20019;-61
2022/03/16 08:19:00;;;;;;;37.80;20.88;;;9.20;99.90;;;;;;6264030;22;20477;-59
2022/03/16 08:21:26;;;;;;;28.85;20.25;;;9.50;99.90;;;;;;6238655;22;20027;-61
2022/03/16 08:23:53;;;;;;;27.30;18.15;;;9.70;99.90;;;;;;6266367;22;20020;-62
2022/03/16 08:26:19;;;;;;;28.63;18.60;;;9.80;99.90;;;;;;6238377;22;20101;-70
2022/03/16 08:28:45;;;;;;;32.03;20.35;;;9.80;99.90;;;;;;6267515;22;20016;-61
2022/03/16 08:31:11;;;;;;;29.27;19.17;;;9.90;99.90;;;;;;6266481;22;20421;-59
2022/03/16 08:33:37;;;;;;;29.27;18.42;;;10.10;99.90;;;;;;6266815;22;20062;-66
2022/03/16 08:36:07;;;;;;;25.73;17.05;;;10.30;99.90;;;;;;6236757;22;20472;-58
2022/03/16 08:38:37;;;;;;;28.23;17.48;;;10.30;99.90;;;;;;6266570;22;20023;-59
2022/03/16 08:41:06;;;;;;;29.63;18.38;;;10.60;99.90;;;;;;6267137;22;20023;-59
2022/03/16 08:43:33;;;;;;;27.55;18.48;;;10.60;99.90;;;;;;6267573;22;20109;-56
2022/03/16 08:45:59;;;;;;;28.98;18.20;;;10.80;99.90;;;;;;6267347;22;20019;-56
2022/03/16 08:48:26;;;;;;;25.02;16.33;;;11.50;99.90;;;;;;6267251;22;20381;-57
2022/03/16 08:50:51;;;;;;;26.88;17.83;;;11.10;99.90;;;;;;6266980;22;20028;-57
2022/03/16 08:53:17;;;;;;;26.27;18.05;;;11.30;99.90;;;;;;6265040;22;20069;-56
2022/03/16 08:55:43;;;;;;;27.65;18.52;;;11.50;99.90;;;;;;6265282;22;20099;-56
2022/03/16 08:58:08;;;;;;;28.08;17.33;;;11.70;99.90;;;;;;6265165;22;20083;-57
2022/03/16 09:00:37;;;;;;;22.33;15.85;;;12.20;99.90;;;;;;6239701;22;20492;-56
2022/03/16 09:03:03;;;;;;;27.80;16.02;;;12.60;99.90;;;;;;6266690;22;20476;-56
2022/03/16 09:05:28;;;;;;;26.90;16.50;;;12.90;99.90;;;;;;6266270;22;20023;-56
2022/03/16 09:07:57;;;;;;;24.13;17.15;;;13.20;99.90;;;;;;6266781;22;20019;-56
2022/03/16 09:10:23;;;;;;;30.08;17.05;;;14.00;99.90;;;;;;6267962;22;20522;-58
2022/03/16 09:12:49;;;;;;;25.45;17.20;;;14.00;99.90;;;;;;6266479;22;20330;-59
2022/03/16 09:15:14;;;;;;;23.27;15.32;;;14.40;99.90;;;;;;6240082;22;20100;-59
2022/03/16 09:17:40;;;;;;;24.88;15.63;;;14.80;99.90;;;;;;6267438;22;20027;-58
2022/03/16 09:20:06;;;;;;;22.55;15.15;;;15.10;99.90;;;;;;6267699;22;20078;-57
2022/03/16 09:22:32;;;;;;;21.52;14.10;;;15.40;99.90;;;;;;6266873;22;20023;-59
2022/03/16 09:24:58;;;;;;;21.85;15.20;;;15.60;99.90;;;;;;6266947;22;20098;-56
2022/03/16 09:27:25;;;;;;;23.13;16.50;;;15.90;99.90;;;;;;6264772;22;20239;-56
2022/03/16 09:29:53;;;;;;;24.10;15.68;;;16.30;99.90;;;;;;6263907;22;20248;-58
2022/03/16 09:32:21;;;;;;;24.48;17.48;;;16.60;99.90;;;;;;6264557;22;20137;-59
2022/03/16 09:34:48;;;;;;;25.40;17.05;;;16.40;99.90;;;;;;6265607;22;20090;-59
2022/03/16 09:37:13;;;;;;;23.48;15.07;;;17.10;99.90;;;;;;6265181;22;20020;-56
2022/03/16 09:39:40;;;;;;;25.65;15.68;;;17.40;99.90;;;;;;6266134;22;20026;-56
2022/03/16 09:42:08;;;;;;;18.30;13.85;;;17.60;99.90;;;;;;6266958;22;20123;-58
2022/03/16 09:44:34;;;;;;;21.42;13.98;;;17.70;99.90;;;;;;6266281;22;20039;-56
2022/03/16 09:47:01;;;;;;;17.75;13.10;;;17.80;99.90;;;;;;6267512;22;20018;-57
2022/03/16 09:49:27;;;;;;;19.45;13.65;;;18.00;99.90;;;;;;6267385;22;20024;-57
2022/03/16 09:51:54;;;;;;;16.48;12.35;;;17.90;99.90;;;;;;6267237;22;20019;-56
2022/03/16 09:54:24;;;;;;;16.25;12.02;;;18.00;99.90;;;;;;6265816;22;20524;-57
2022/03/16 09:56:49;;;;;;;16.65;11.70;;;18.10;99.90;;;;;;6267115;22;20043;-57
2022/03/16 09:59:15;;;;;;;21.08;14.10;;;18.20;99.90;;;;;;6265979;22;20480;-56
2022/03/16 10:01:44;;;;;;;16.63;13.18;;;18.30;99.90;;;;;;6240042;22;20087;-56
2022/03/16 10:04:10;;;;;;;14.82;11.35;;;18.40;99.90;;;;;;6266395;22;20465;-57
2022/03/16 10:06:40;;;;;;;16.27;11.50;;;18.70;99.90;;;;;;6267662;22;20065;-56
2022/03/16 10:15:20;;;;;;;15.30;10.27;;;18.90;99.90;;;;;;6266112;22;20047;-56
2022/03/16 10:18:05;;;;;;;20.05;12.15;;;19.20;99.90;;;;;;6261701;22;20460;-56
2022/03/16 10:20:40;;;;;;;15.75;10.57;;;19.50;99.90;;;;;;6266097;22;20066;-57
2022/03/16 10:23:12;;;;;;;15.57;10.70;;;19.70;99.90;;;;;;6267461;22;20023;-57
2022/03/16 10:25:45;;;;;;;14.23;10.10;;;19.80;99.90;;;;;;6266051;22;20878;-57
2022/03/16 10:28:17;;;;;;;14.57;11.60;;;19.90;99.90;;;;;;6266897;22;20874;-57
2022/03/16 10:31:02;;;;;;;13.85;10.75;;;20.00;99.90;;;;;;6266031;22;20027;-60
2022/03/16 10:33:32;;;;;;;13.13;9.82;;;20.10;99.90;;;;;;6239940;22;20484;-57
2022/03/16 10:36:10;;;;;;;13.48;10.10;;;20.10;99.90;;;;;;6265644;22;20066;-57
2022/03/16 10:38:44;;;;;;;15.15;10.43;;;20.20;99.90;;;;;;6266450;22;20019;-56
2022/03/16 10:46:53;;;;;;;10.13;8.52;;;20.30;99.90;;;;;;6264413;22;20393;-56
2022/03/16 10:49:26;;;;;;;13.90;10.48;;;20.30;99.90;;;;;;6266917;22;20016;-57
2022/03/16 10:52:02;;;;;;;11.00;8.38;;;20.30;99.90;;;;;;6262754;22;20034;-57
2022/03/16 10:54:29;;;;;;;9.80;8.02;;;20.30;99.90;;;;;;6266667;22;20090;-57
2022/03/16 10:56:55;;;;;;;10.45;8.60;;;20.50;99.90;;;;;;6265373;22;20024;-58
2022/03/16 10:59:26;;;;;;;12.95;9.10;;;20.60;99.90;;;;;;6265374;22;20042;-57
2022/03/16 11:01:52;;;;;;;17.25;9.32;;;20.50;99.90;;;;;;6238055;22;20500;-57
2022/03/16 11:04:22;;;;;;;13.00;9.45;;;20.30;99.90;;;;;;6266112;22;20020;-58
2022/03/16 11:06:49;;;;;;;14.30;9.18;;;20.40;99.90;;;;;;6266412;22;20024;-61
2022/03/16 11:09:17;;;;;;;14.88;8.75;;;20.60;99.90;;;;;;6261310;22;20019;-60
2022/03/16 11:14:29;;;;;;;14.15;10.02;;;20.70;99.70;;;;;;6262619;22;20030;-63
2022/03/16 11:16:56;;;;;;;11.50;8.52;;;20.70;99.80;;;;;;6262520;22;20384;-57
2022/03/16 11:19:24;;;;;;;15.52;9.93;;;20.80;99.60;;;;;;6261231;22;20024;-57
2022/03/16 11:22:13;;;;;;;13.20;9.45;;;20.70;99.50;;;;;;6263320;22;20020;-57
2022/03/16 11:24:45;;;;;;;15.45;9.63;;;20.60;98.60;;;;;;6233752;22;20023;-57
2022/03/16 11:27:31;;;;;;;11.80;9.30;;;20.90;99.10;;;;;;6262744;22;20015;-57
2022/03/16 11:30:07;;;;;;;13.93;9.43;;;20.80;97.90;;;;;;6229743;22;20509;-57
2022/03/16 11:32:38;;;;;;;13.25;8.45;;;20.90;98.70;;;;;;6258609;22;20073;-58
2022/03/16 11:35:14;;;;;;;10.63;8.85;;;21.10;98.20;;;;;;6258635;22;20155;-57
2022/03/16 11:37:44;;;;;;;12.60;8.77;;;21.20;98.30;;;;;;6260608;22;20020;-61
2022/03/16 11:40:23;;;;;;;11.35;8.88;;;21.40;98.70;;;;;;6233369;22;20026;-58
2022/03/16 11:43:04;;;;;;;12.30;8.48;;;21.30;98.30;;;;;;6260816;22;20323;-59
2022/03/16 11:45:38;;;;;;;12.05;8.73;;;21.40;97.00;;;;;;6260581;22;20102;-58
2022/03/16 11:48:31;;;;;;;13.18;8.38;;;21.70;97.10;;;;;;6208799;22;20106;-57
2022/03/16 11:51:18;;;;;;;11.93;8.88;;;22.00;96.70;;;;;;6231984;22;20396;-58
2022/03/16 11:56:23;;;;;;;11.75;8.25;;;22.60;97.10;;;;;;6234759;22;20034;-57
2022/03/16 11:58:53;;;;;;;11.40;7.68;;;22.80;97.20;;;;;;6262593;22;20031;-58
2022/03/16 12:01:33;;;;;;;14.27;8.88;;;23.00;97.10;;;;;;6262599;22;20020;-60
2022/03/16 12:04:13;;;;;;;10.48;7.93;;;23.40;94.60;;;;;;6232674;22;20016;-58
2022/03/16 12:07:02;;;;;;;9.70;7.85;;;23.70;95.90;;;;;;6261820;22;20027;-60
2022/03/16 12:09:44;;;;;;;9.35;7.20;;;24.70;93.60;;;;;;6262090;22;20011;-59
2022/03/16 12:15:11;;;;;;;11.00;7.05;;;28.60;91.90;;;;;;6231605;22;20031;-57
2022/03/16 12:17:52;;;;;;;10.10;7.18;;;30.30;89.90;;;;;;6257607;22;20058;-57
2022/03/16 12:20:21;;;;;;;10.23;6.43;;;31.70;84.60;;;;;;6260267;22;20020;-58
2022/03/16 12:22:49;;;;;;;8.27;6.25;;;32.20;83.80;;;;;;6259083;22;20409;-57
2022/03/16 12:25:30;;;;;;;10.35;7.32;;;32.60;81.70;;;;;;6257686;22;20043;-58
2022/03/16 12:30:54;;;;;;;7.32;5.70;;;34.10;76.30;;;;;;6260852;22;20031;-58
2022/03/16 12:33:31;;;;;;;10.35;6.35;;;35.00;75.10;;;;;;6261713;22;20023;-57
2022/03/16 12:36:03;;;;;;;8.55;6.80;;;35.40;72.30;;;;;;6259650;22;20027;-59
2022/03/16 12:38:31;;;;;;;8.20;6.25;;;34.40;70.40;;;;;;6260520;22;20433;-59
2022/03/16 12:43:52;;;;;;;7.47;5.80;;;35.90;67.40;;;;;;6235248;22;20019;-58
2022/03/16 12:46:36;;;;;;;8.90;6.55;;;36.20;67.00;;;;;;6263128;22;20078;-58
2022/03/16 12:49:06;;;;;;;8.70;6.75;;;35.60;64.10;;;;;;6263821;22;20030;-58
2022/03/16 12:51:37;;;;;;;11.00;6.57;;;35.60;64.40;;;;;;6261139;22;20834;-57
2022/03/16 12:54:05;;;;;;;9.48;7.13;;;35.70;64.10;;;;;;6261984;22;20023;-58
2022/03/16 12:56:31;;;;;;;11.13;7.68;;;35.10;64.10;;;;;;6262773;22;20026;-58
2022/03/16 12:58:57;;;;;;;12.18;7.53;;;35.20;63.60;;;;;;6264398;22;20103;-58
2022/03/16 13:01:23;;;;;;;8.07;7.10;;;34.50;63.20;;;;;;6260691;22;20149;-58
2022/03/16 13:04:00;;;;;;;8.75;6.45;;;32.60;62.80;;;;;;6260650;22;20441;-58